Time;durP1;ratioP1;P1;durP2;ratioP2;P2;SDS_P1;SDS_P2;PMS_P1;PMS_P2;Temp;Humidity;BMP_temperature;BMP_pressure;BME280_temperature;BME280_humidity;BME280_pressure;Samples;Min_cycle;Max_cycle;Signal;HPM_P1;HPM_P2
2021/05/20 00:00:22;;;;;;;8.00;3.80;;;14.50;99.90;;;;;;5032313;28;20659;-70
2021/05/20 00:02:50;;;;;;;7.40;4.47;;;14.60;99.90;;;;;;5032619;28;20188;-71
2021/05/20 00:05:17;;;;;;;11.30;4.13;;;14.60;99.90;;;;;;5031162;28;20182;-69
2021/05/20 00:07:46;;;;;;;9.47;3.70;;;14.70;99.90;;;;;;5032590;28;20200;-70
2021/05/20 00:10:15;;;;;;;7.77;4.40;;;14.80;99.90;;;;;;5032664;28;20196;-71
2021/05/20 00:12:44;;;;;;;5.67;3.40;;;15.00;99.90;;;;;;5028366;28;20193;-70
2021/05/20 00:15:13;;;;;;;7.77;3.60;;;15.20;99.90;;;;;;5032861;28;20185;-70
2021/05/20 00:17:41;;;;;;;7.93;4.10;;;15.30;99.90;;;;;;5032582;28;20254;-71
2021/05/20 00:20:09;;;;;;;7.97;3.47;;;15.50;99.90;;;;;;5029461;28;20192;-70
2021/05/20 00:22:36;;;;;;;6.13;3.50;;;15.60;99.90;;;;;;5032095;28;20231;-68
2021/05/20 00:25:05;;;;;;;9.00;3.93;;;15.80;99.90;;;;;;5031603;28;20659;-69
2021/05/20 00:27:32;;;;;;;5.83;2.87;;;15.90;99.90;;;;;;5032849;28;20280;-68
2021/05/20 00:30:00;;;;;;;5.33;2.77;;;16.10;99.90;;;;;;5031303;28;20192;-69
2021/05/20 00:32:29;;;;;;;5.00;2.67;;;16.10;99.90;;;;;;5031627;28;20264;-69
2021/05/20 00:34:56;;;;;;;8.93;3.07;;;16.20;99.90;;;;;;5032398;28;20184;-69
2021/05/20 00:37:23;;;;;;;5.30;2.70;;;16.20;99.90;;;;;;4951010;28;2343911;-71
2021/05/20 00:39:52;;;;;;;6.77;2.93;;;16.30;99.80;;;;;;5032951;28;20421;-70
2021/05/20 00:42:19;;;;;;;5.13;3.00;;;16.40;99.90;;;;;;5022933;28;20221;-71
2021/05/20 00:44:57;;;;;;;10.23;2.53;;;16.60;99.50;;;;;;5033149;28;20207;-70
2021/05/20 00:47:26;;;;;;;6.23;2.30;;;16.70;99.30;;;;;;5026054;28;20207;-70
2021/05/20 00:49:54;;;;;;;8.03;2.60;;;16.80;98.60;;;;;;5033132;28;20184;-71
2021/05/20 00:52:22;;;;;;;8.50;2.70;;;16.90;97.60;;;;;;5033576;28;20589;-71
2021/05/20 00:54:52;;;;;;;8.70;2.97;;;17.10;98.00;;;;;;5033340;28;20192;-71
2021/05/20 00:57:20;;;;;;;7.83;2.53;;;17.30;98.50;;;;;;5033411;28;20202;-72
2021/05/20 00:59:50;;;;;;;5.67;2.70;;;17.50;97.90;;;;;;5032804;28;20705;-71
2021/05/20 01:02:18;;;;;;;10.80;2.57;;;17.70;97.40;;;;;;5032109;28;20222;-71
2021/05/20 01:04:46;;;;;;;7.33;2.60;;;17.90;97.30;;;;;;5033282;28;20209;-73
2021/05/20 01:07:13;;;;;;;3.17;2.20;;;18.00;95.60;;;;;;5036207;28;20578;-70
2021/05/20 01:09:41;;;;;;;5.07;2.37;;;18.20;95.80;;;;;;5030579;28;20681;-70
2021/05/20 01:12:09;;;;;;;4.23;2.27;;;18.50;94.70;;;;;;5031766;28;20199;-71
2021/05/20 01:14:41;;;;;;;5.40;2.20;;;18.80;94.40;;;;;;5032098;28;20553;-69
2021/05/20 01:17:09;;;;;;;5.90;2.57;;;18.50;93.40;;;;;;5032712;28;20706;-69
2021/05/20 01:19:42;;;;;;;7.63;2.47;;;18.50;94.50;;;;;;5032880;28;20264;-70
2021/05/20 01:22:09;;;;;;;9.70;2.50;;;18.50;94.90;;;;;;5029307;28;20244;-70
2021/05/20 01:24:37;;;;;;;9.30;3.13;;;18.40;95.10;;;;;;5031186;28;20223;-69
2021/05/20 01:27:06;;;;;;;13.10;3.00;;;18.40;95.40;;;;;;5031941;28;20254;-71
2021/05/20 01:29:35;;;;;;;5.67;2.30;;;18.40;95.40;;;;;;5025543;28;20197;-70
2021/05/20 01:32:04;;;;;;;5.00;2.70;;;18.20;95.40;;;;;;5032096;28;20200;-70
2021/05/20 01:34:32;;;;;;;8.73;2.70;;;18.00;95.40;;;;;;5031852;28;20192;-68
2021/05/20 01:37:07;;;;;;;4.60;2.50;;;18.10;95.60;;;;;;5030842;28;20254;-69
2021/05/20 01:39:34;;;;;;;6.73;2.30;;;18.30;95.80;;;;;;5031483;28;20192;-68
2021/05/20 01:42:02;;;;;;;6.47;2.63;;;18.20;95.80;;;;;;5031479;28;20212;-69
2021/05/20 01:44:30;;;;;;;9.10;2.80;;;18.20;95.70;;;;;;5030220;28;20283;-71
2021/05/20 01:46:57;;;;;;;4.17;2.00;;;18.30;95.90;;;;;;5031246;28;20193;-69
2021/05/20 01:49:24;;;;;;;5.43;2.17;;;18.30;95.20;;;;;;5031299;28;20193;-68
2021/05/20 01:51:52;;;;;;;5.97;2.53;;;18.20;94.80;;;;;;5030342;28;20196;-71
2021/05/20 01:54:19;;;;;;;9.77;2.70;;;18.20;94.80;;;;;;5028219;28;20190;-69
2021/05/20 01:56:46;;;;;;;8.60;2.50;;;18.30;95.30;;;;;;5030442;28;20177;-70
2021/05/20 01:59:14;;;;;;;6.87;2.83;;;18.30;95.30;;;;;;5031436;28;20226;-69
2021/05/20 02:01:41;;;;;;;6.20;2.50;;;18.40;95.50;;;;;;5030898;28;20218;-68
2021/05/20 02:04:09;;;;;;;9.10;2.83;;;18.40;95.00;;;;;;5030507;28;20552;-69
2021/05/20 02:06:36;;;;;;;10.63;3.67;;;18.50;94.90;;;;;;5030387;28;20215;-70
2021/05/20 02:09:05;;;;;;;6.77;2.77;;;18.70;94.90;;;;;;5030636;28;20219;-68
2021/05/20 02:11:33;;;;;;;7.00;2.87;;;19.00;94.60;;;;;;5024596;28;20219;-69
2021/05/20 02:14:00;;;;;;;6.13;2.43;;;18.90;94.50;;;;;;5030270;28;20653;-69
2021/05/20 02:16:28;;;;;;;9.70;3.13;;;19.00;94.60;;;;;;5029217;28;20173;-68
2021/05/20 02:18:55;;;;;;;6.53;2.40;;;19.00;94.20;;;;;;5031135;28;20648;-70
2021/05/20 02:21:23;;;;;;;4.80;2.03;;;19.10;93.40;;;;;;5030653;28;20223;-69
2021/05/20 02:23:50;;;;;;;11.40;2.37;;;19.20;92.80;;;;;;5030913;28;20192;-69
2021/05/20 02:26:18;;;;;;;5.20;2.13;;;19.20;92.60;;;;;;5029041;28;20172;-69
2021/05/20 02:28:45;;;;;;;6.23;1.80;;;19.40;91.80;;;;;;5027823;28;20177;-72
2021/05/20 02:31:13;;;;;;;4.90;1.80;;;19.70;90.10;;;;;;5030841;28;20184;-70
2021/05/20 02:33:40;;;;;;;7.27;1.93;;;20.10;90.50;;;;;;5031115;28;20185;-71
2021/05/20 02:36:08;;;;;;;7.20;2.00;;;20.40;90.20;;;;;;5030689;28;20184;-72
2021/05/20 02:38:35;;;;;;;4.93;2.00;;;20.40;88.10;;;;;;5029437;28;20262;-72
2021/05/20 02:41:03;;;;;;;4.27;2.27;;;20.60;88.90;;;;;;5030288;28;20212;-71
2021/05/20 02:43:32;;;;;;;2.50;1.90;;;21.00;86.80;;;;;;5029833;28;20203;-72
2021/05/20 02:46:01;;;;;;;5.27;1.97;;;21.20;87.00;;;;;;5030108;28;20199;-73
2021/05/20 02:48:29;;;;;;;4.33;2.30;;;21.50;85.90;;;;;;5026982;28;20191;-72
2021/05/20 02:50:56;;;;;;;4.97;1.97;;;21.40;86.30;;;;;;5029703;28;20210;-72
2021/05/20 02:53:24;;;;;;;8.17;2.30;;;21.60;84.00;;;;;;5030933;28;20230;-73
2021/05/20 02:55:51;;;;;;;5.27;2.33;;;21.70;83.60;;;;;;5030328;28;20230;-72
2021/05/20 02:58:20;;;;;;;5.90;2.27;;;21.60;84.10;;;;;;5039922;28;20602;-72
2021/05/20 03:00:48;;;;;;;5.87;2.03;;;21.80;83.50;;;;;;5027797;28;20377;-71
2021/05/20 03:03:16;;;;;;;7.90;3.50;;;21.70;84.50;;;;;;5030826;28;20242;-71
2021/05/20 03:05:44;;;;;;;10.00;2.83;;;21.50;84.60;;;;;;5030701;28;20181;-71
2021/05/20 03:08:12;;;;;;;4.60;2.53;;;21.60;84.50;;;;;;5030538;28;20193;-71
2021/05/20 03:10:40;;;;;;;6.70;2.27;;;21.70;84.40;;;;;;5030045;28;20185;-73
2021/05/20 03:13:07;;;;;;;6.90;2.40;;;21.80;84.40;;;;;;5030113;28;20195;-69
2021/05/20 03:15:35;;;;;;;3.63;2.27;;;21.80;84.10;;;;;;5029830;28;20187;-72
2021/05/20 03:18:02;;;;;;;5.63;2.27;;;21.80;83.80;;;;;;5028890;28;20195;-71
2021/05/20 03:20:30;;;;;;;7.83;2.60;;;21.80;83.20;;;;;;5038897;28;20181;-72
2021/05/20 03:22:57;;;;;;;9.93;2.60;;;21.70;82.90;;;;;;5023353;28;20188;-69
2021/05/20 03:25:25;;;;;;;6.67;2.07;;;22.10;83.40;;;;;;5031060;28;20185;-72
2021/05/20 03:27:52;;;;;;;5.67;2.40;;;22.70;80.10;;;;;;5034765;28;20197;-71
2021/05/20 03:30:20;;;;;;;6.33;1.90;;;22.90;77.80;;;;;;5033996;28;20222;-73
2021/05/20 03:32:47;;;;;;;3.47;1.30;;;22.90;76.80;;;;;;5027495;28;20196;-72
2021/05/20 03:35:15;;;;;;;3.60;1.30;;;22.90;76.60;;;;;;5034610;28;20192;-72
2021/05/20 03:37:42;;;;;;;4.40;1.20;;;22.70;63.10;;;;;;5032327;28;20687;-75
2021/05/20 03:40:10;;;;;;;5.23;1.30;;;22.70;62.80;;;;;;5033685;28;20254;-75
2021/05/20 03:42:38;;;;;;;1.83;0.97;;;22.60;61.00;;;;;;5033947;28;20294;-77
2021/05/20 03:45:07;;;;;;;1.60;0.90;;;22.70;59.10;;;;;;5028753;28;20205;-74
2021/05/20 03:47:34;;;;;;;2.10;1.30;;;22.80;57.90;;;;;;5033533;28;20671;-74
2021/05/20 03:50:02;;;;;;;3.73;1.30;;;22.50;58.50;;;;;;5034220;28;20179;-73
2021/05/20 03:52:30;;;;;;;1.30;1.00;;;21.80;59.40;;;;;;5033774;28;20643;-72
2021/05/20 03:54:57;;;;;;;4.30;1.37;;;21.50;60.50;;;;;;5029453;28;20659;-74
2021/05/20 03:57:25;;;;;;;6.30;1.60;;;22.00;60.90;;;;;;5032298;28;20200;-73
2021/05/20 03:59:52;;;;;;;1.33;1.20;;;22.20;67.00;;;;;;5034078;28;20187;-71
2021/05/20 04:02:19;;;;;;;4.50;1.30;;;22.60;72.30;;;;;;5032270;28;20266;-73
2021/05/20 04:04:47;;;;;;;9.37;1.80;;;23.30;72.90;;;;;;5032119;28;20215;-72
2021/05/20 04:07:14;;;;;;;6.17;1.50;;;23.70;72.90;;;;;;5033355;28;20188;-72
2021/05/20 04:09:42;;;;;;;5.57;1.97;;;23.70;71.80;;;;;;5033964;28;20594;-76
2021/05/20 04:12:10;;;;;;;6.10;1.50;;;23.80;71.40;;;;;;5034648;28;20223;-77
2021/05/20 04:14:40;;;;;;;2.57;1.27;;;23.60;71.00;;;;;;5033897;28;20188;-77
2021/05/20 04:17:07;;;;;;;1.77;1.17;;;23.80;70.30;;;;;;5033991;28;20176;-73
2021/05/20 04:19:35;;;;;;;5.67;1.50;;;24.50;69.70;;;;;;5034578;28;20267;-74
2021/05/20 04:22:03;;;;;;;5.17;1.40;;;25.00;68.60;;;;;;5034220;28;20221;-73
2021/05/20 04:24:30;;;;;;;3.63;1.30;;;25.10;68.30;;;;;;5034258;28;20169;-76
2021/05/20 04:26:57;;;;;;;2.27;1.20;;;25.50;67.50;;;;;;5034463;28;20180;-75
2021/05/20 04:29:25;;;;;;;2.00;1.10;;;25.50;66.10;;;;;;5034332;28;20180;-77
2021/05/20 04:31:52;;;;;;;2.30;1.20;;;25.60;66.00;;;;;;5033675;28;20247;-75
2021/05/20 04:34:20;;;;;;;3.43;1.37;;;25.20;65.60;;;;;;5032562;28;20185;-76
2021/05/20 04:36:48;;;;;;;2.23;1.10;;;24.80;66.40;;;;;;5032503;28;20259;-73
2021/05/20 04:39:15;;;;;;;3.20;1.33;;;25.00;66.70;;;;;;5033979;28;20185;-78
2021/05/20 04:41:43;;;;;;;7.07;1.77;;;25.40;66.20;;;;;;5033626;28;20295;-72
2021/05/20 04:44:10;;;;;;;2.30;1.33;;;25.30;63.20;;;;;;5033915;28;20642;-79
2021/05/20 04:46:37;;;;;;;2.70;1.30;;;25.50;62.90;;;;;;5033912;28;20185;-74
2021/05/20 04:49:13;;;;;;;3.87;1.40;;;25.40;62.00;;;;;;5032869;28;20639;-74
2021/05/20 04:51:42;;;;;;;4.30;1.50;;;25.60;61.50;;;;;;5031546;28;20180;-72
2021/05/20 04:54:10;;;;;;;1.50;1.20;;;26.00;60.60;;;;;;5032943;28;20334;-72
2021/05/20 04:56:37;;;;;;;4.97;1.23;;;25.70;61.10;;;;;;5032285;28;20200;-72
2021/05/20 04:59:05;;;;;;;2.80;1.07;;;25.80;61.00;;;;;;5033439;28;20180;-70
2021/05/20 05:01:33;;;;;;;1.90;1.23;;;25.80;61.20;;;;;;5032581;28;20709;-68
2021/05/20 05:04:00;;;;;;;3.77;1.63;;;25.60;61.80;;;;;;5031936;28;20184;-70
2021/05/20 05:06:28;;;;;;;5.57;1.57;;;25.80;62.10;;;;;;5030973;28;20647;-68
2021/05/20 05:08:55;;;;;;;5.17;1.67;;;26.00;61.70;;;;;;5028258;28;20247;-70
2021/05/20 05:11:23;;;;;;;6.10;1.30;;;26.00;61.60;;;;;;5032279;28;20173;-70
2021/05/20 05:13:50;;;;;;;3.93;1.27;;;26.10;60.50;;;;;;5030871;28;20212;-71
2021/05/20 05:16:18;;;;;;;5.50;1.13;;;25.80;60.60;;;;;;5032073;28;20195;-74
2021/05/20 05:18:45;;;;;;;3.77;1.20;;;25.90;61.70;;;;;;5031168;28;20528;-76
2021/05/20 05:21:13;;;;;;;5.70;1.20;;;26.10;60.10;;;;;;5031550;28;20291;-73
2021/05/20 05:23:40;;;;;;;4.50;1.20;;;25.90;60.10;;;;;;5032575;28;20204;-72
2021/05/20 05:26:08;;;;;;;4.93;1.60;;;25.40;60.90;;;;;;5031372;28;20643;-71
2021/05/20 05:28:35;;;;;;;2.07;1.17;;;25.60;61.90;;;;;;5031076;28;20199;-73
2021/05/20 05:31:03;;;;;;;3.80;1.30;;;25.40;60.60;;;;;;5031642;28;20180;-72
2021/05/20 05:33:30;;;;;;;2.27;1.20;;;25.60;61.20;;;;;;5032053;28;20177;-72
2021/05/20 05:35:58;;;;;;;3.10;1.43;;;25.60;61.20;;;;;;5031681;28;20181;-70
2021/05/20 05:38:25;;;;;;;2.70;1.23;;;25.70;61.60;;;;;;5031323;28;20226;-71
2021/05/20 05:40:52;;;;;;;3.33;1.50;;;25.80;60.70;;;;;;5031111;28;20196;-69
2021/05/20 05:43:19;;;;;;;4.33;1.70;;;25.90;60.30;;;;;;5031402;28;20200;-73
2021/05/20 05:45:47;;;;;;;2.47;1.20;;;26.10;61.10;;;;;;5031239;28;20519;-76
2021/05/20 05:48:14;;;;;;;3.10;1.20;;;26.10;60.90;;;;;;5029930;28;20180;-72
2021/05/20 05:50:43;;;;;;;3.30;1.30;;;25.80;60.70;;;;;;5031164;28;20199;-69
2021/05/20 05:53:10;;;;;;;1.87;1.20;;;25.70;60.80;;;;;;5030731;28;20195;-73
2021/05/20 05:55:37;;;;;;;4.83;1.37;;;25.40;60.40;;;;;;5029958;28;20231;-71
2021/05/20 05:58:05;;;;;;;3.47;1.43;;;25.40;61.10;;;;;;5029138;28;20204;-76
2021/05/20 06:00:32;;;;;;;2.70;1.40;;;25.30;61.40;;;;;;5029442;28;20220;-73
2021/05/20 06:03:00;;;;;;;3.00;1.23;;;25.30;61.00;;;;;;5026926;28;20242;-69
2021/05/20 06:05:27;;;;;;;5.20;1.20;;;25.20;61.00;;;;;;5028471;28;20549;-71
2021/05/20 06:07:56;;;;;;;3.50;1.30;;;25.10;61.80;;;;;;5031482;28;20177;-74
2021/05/20 06:10:23;;;;;;;4.67;1.20;;;24.80;60.70;;;;;;5028945;28;20219;-73
2021/05/20 06:12:51;;;;;;;2.60;1.43;;;24.50;61.80;;;;;;5031370;28;20514;-74
2021/05/20 06:15:18;;;;;;;4.53;1.30;;;23.80;62.60;;;;;;5030937;28;20646;-73
2021/05/20 06:17:46;;;;;;;4.97;1.33;;;23.10;63.90;;;;;;5030868;28;20181;-71
2021/05/20 06:20:13;;;;;;;4.07;1.80;;;22.60;64.60;;;;;;5028651;28;20184;-72
2021/05/20 06:22:41;;;;;;;4.80;1.83;;;22.00;65.70;;;;;;5031464;28;20661;-73
2021/05/20 06:25:09;;;;;;;4.40;1.80;;;21.40;67.20;;;;;;5031095;28;20181;-74
2021/05/20 06:27:37;;;;;;;4.20;1.80;;;21.20;68.30;;;;;;5029639;28;20184;-72
2021/05/20 06:30:05;;;;;;;8.57;2.30;;;21.00;69.30;;;;;;5032241;28;20694;-70
2021/05/20 06:32:32;;;;;;;5.33;1.73;;;20.60;69.80;;;;;;5031627;28;20640;-69
2021/05/20 06:35:00;;;;;;;7.53;1.70;;;20.30;70.40;;;;;;5030692;28;20526;-70
2021/05/20 06:37:27;;;;;;;4.30;1.67;;;20.10;71.20;;;;;;5032155;28;20225;-71
2021/05/20 06:39:54;;;;;;;6.37;1.67;;;20.00;71.60;;;;;;5031625;28;20191;-72
2021/05/20 06:42:22;;;;;;;5.37;2.00;;;19.90;71.80;;;;;;5031727;28;20215;-74
2021/05/20 06:44:49;;;;;;;4.93;1.80;;;19.80;72.30;;;;;;5032249;28;20231;-73
2021/05/20 06:47:17;;;;;;;8.50;2.20;;;19.60;73.20;;;;;;5031412;28;20196;-74
2021/05/20 06:49:44;;;;;;;7.90;2.60;;;19.40;73.80;;;;;;5030048;28;20685;-75
2021/05/20 06:52:11;;;;;;;9.13;2.27;;;19.20;74.20;;;;;;5031536;28;20638;-71
2021/05/20 06:54:39;;;;;;;8.23;2.50;;;19.00;74.90;;;;;;5031834;28;20357;-72
2021/05/20 06:57:17;;;;;;;7.27;2.53;;;18.80;75.40;;;;;;5030202;28;20180;-70
2021/05/20 07:00:03;;;;;;;9.63;2.80;;;18.70;75.40;;;;;;5030725;28;20291;-74
2021/05/20 07:02:32;;;;;;;7.00;2.40;;;18.60;76.10;;;;;;5033713;28;20269;-73
2021/05/20 07:04:59;;;;;;;5.73;2.73;;;18.40;76.40;;;;;;5034676;28;20180;-72
2021/05/20 07:07:28;;;;;;;4.80;2.70;;;18.30;77.00;;;;;;5034803;28;20609;-74
2021/05/20 07:09:56;;;;;;;9.60;2.63;;;18.20;77.70;;;;;;5035227;28;20188;-71
2021/05/20 07:12:23;;;;;;;9.63;2.97;;;18.10;77.40;;;;;;5034848;28;20176;-71
2021/05/20 07:14:51;;;;;;;11.20;2.90;;;18.00;77.60;;;;;;5034957;28;20587;-74
2021/05/20 07:17:19;;;;;;;7.27;2.13;;;17.90;77.70;;;;;;5035404;28;20173;-72
2021/05/20 07:19:46;;;;;;;6.33;2.63;;;17.80;77.80;;;;;;5035678;28;20271;-74
2021/05/20 07:22:14;;;;;;;6.70;3.00;;;17.80;78.20;;;;;;5034965;28;20220;-73
2021/05/20 07:24:43;;;;;;;7.33;3.17;;;17.60;78.60;;;;;;5035206;28;20585;-69
2021/05/20 07:27:10;;;;;;;11.77;2.93;;;17.50;79.10;;;;;;5034780;28;20623;-72
2021/05/20 07:29:38;;;;;;;5.37;3.10;;;17.50;79.90;;;;;;5034645;28;20183;-70
2021/05/20 07:32:07;;;;;;;12.20;3.67;;;17.40;81.20;;;;;;5035044;28;20266;-70
2021/05/20 07:34:36;;;;;;;8.27;3.37;;;17.30;81.20;;;;;;5034813;28;20193;-69
2021/05/20 07:37:03;;;;;;;7.83;3.83;;;17.20;80.80;;;;;;5033203;28;20195;-69
2021/05/20 07:39:31;;;;;;;10.03;3.30;;;17.20;80.90;;;;;;5033982;28;20188;-72
2021/05/20 07:41:58;;;;;;;6.37;3.17;;;17.10;80.70;;;;;;5034548;28;20219;-72
2021/05/20 07:44:25;;;;;;;8.63;3.90;;;17.10;81.30;;;;;;5033796;28;20180;-74
2021/05/20 07:46:55;;;;;;;9.07;3.70;;;17.00;81.70;;;;;;5035390;28;20544;-72
2021/05/20 07:49:25;;;;;;;15.80;5.27;;;16.90;82.30;;;;;;5034365;28;20176;-71
2021/05/20 07:51:53;;;;;;;9.57;4.50;;;16.90;83.40;;;;;;5034344;28;20646;-73
2021/05/20 07:54:20;;;;;;;11.23;5.33;;;16.90;84.80;;;;;;5034223;28;20651;-75
2021/05/20 07:56:47;;;;;;;8.53;4.37;;;16.80;85.40;;;;;;5033038;28;20184;-70
2021/05/20 07:59:15;;;;;;;9.17;4.60;;;16.80;84.40;;;;;;5034292;28;20694;-73
2021/05/20 08:01:52;;;;;;;9.23;4.20;;;16.70;84.30;;;;;;5033784;28;20307;-73
2021/05/20 08:04:22;;;;;;;9.40;4.73;;;16.70;83.70;;;;;;5024182;28;20769;-72
2021/05/20 08:11:50;;;;;;;16.00;5.93;;;16.60;84.50;;;;;;5031150;28;20179;-74
2021/05/20 08:14:18;;;;;;;10.63;5.07;;;16.50;85.20;;;;;;5031409;28;20202;-72
2021/05/20 08:16:45;;;;;;;13.93;5.80;;;16.50;85.10;;;;;;5032831;28;20188;-74
2021/05/20 08:19:12;;;;;;;12.13;5.80;;;16.40;85.50;;;;;;5034012;28;20207;-71
2021/05/20 08:21:41;;;;;;;14.10;6.53;;;16.40;85.80;;;;;;5031061;28;20309;-69
2021/05/20 08:24:09;;;;;;;12.70;6.00;;;16.30;86.10;;;;;;5032030;28;20196;-69
2021/05/20 08:26:38;;;;;;;20.00;6.93;;;16.30;86.50;;;;;;5031878;28;20274;-72
2021/05/20 08:29:05;;;;;;;12.33;6.23;;;16.30;86.60;;;;;;5031610;28;20520;-73
2021/05/20 08:31:34;;;;;;;16.80;6.43;;;16.20;86.50;;;;;;5033411;28;20184;-72
2021/05/20 08:34:01;;;;;;;14.07;6.50;;;16.20;86.80;;;;;;5033037;28;20197;-73
2021/05/20 08:36:28;;;;;;;15.03;5.70;;;16.10;87.30;;;;;;5032714;28;20216;-73
2021/05/20 08:38:56;;;;;;;10.00;4.63;;;16.10;87.60;;;;;;5033132;28;20234;-74
2021/05/20 08:41:23;;;;;;;13.60;6.33;;;16.10;87.90;;;;;;5033469;28;20203;-70
2021/05/20 08:43:50;;;;;;;10.10;5.13;;;16.00;88.50;;;;;;5033737;28;20184;-74
2021/05/20 08:46:26;;;;;;;15.77;5.87;;;16.00;89.10;;;;;;5033981;28;20211;-70
2021/05/20 08:48:53;;;;;;;11.80;4.83;;;15.90;89.50;;;;;;5034108;28;20182;-72
2021/05/20 08:51:21;;;;;;;15.40;5.30;;;15.90;89.70;;;;;;5033573;28;20180;-68
2021/05/20 08:53:48;;;;;;;13.20;5.40;;;15.90;90.00;;;;;;5034266;28;20547;-70
2021/05/20 08:56:17;;;;;;;8.53;4.83;;;15.80;90.40;;;;;;5033449;28;20175;-71
2021/05/20 08:58:44;;;;;;;6.83;4.40;;;15.80;90.40;;;;;;5033702;28;20215;-72
2021/05/20 09:01:31;;;;;;;13.47;5.23;;;15.80;91.00;;;;;;5033499;28;20200;-75
2021/05/20 09:04:00;;;;;;;9.37;4.27;;;15.70;91.30;;;;;;5033608;28;20271;-73
2021/05/20 09:06:38;;;;;;;8.83;4.20;;;15.70;91.30;;;;;;5033208;28;20177;-73
2021/05/20 09:09:16;;;;;;;11.57;4.70;;;15.70;91.50;;;;;;5033629;28;20643;-73
2021/05/20 09:11:57;;;;;;;9.93;5.20;;;15.70;92.00;;;;;;5033562;28;20543;-69
2021/05/20 09:14:33;;;;;;;11.13;4.87;;;15.60;92.30;;;;;;5033168;28;20216;-71
2021/05/20 09:17:18;;;;;;;13.10;5.67;;;15.60;92.30;;;;;;5033453;28;20188;-71
2021/05/20 09:20:01;;;;;;;15.13;4.87;;;15.50;93.00;;;;;;5032653;28;20199;-71
2021/05/20 09:22:29;;;;;;;11.73;5.30;;;15.50;92.90;;;;;;5030841;28;20215;-68
2021/05/20 09:24:58;;;;;;;15.70;5.57;;;15.50;92.90;;;;;;5032717;28;20639;-69
2021/05/20 09:27:42;;;;;;;12.23;5.17;;;15.50;92.80;;;;;;5032125;28;20270;-69
2021/05/20 09:30:35;;;;;;;13.47;5.37;;;15.50;93.40;;;;;;5033281;28;20653;-70
2021/05/20 09:33:07;;;;;;;11.63;5.17;;;15.50;93.50;;;;;;5026492;28;20197;-75
2021/05/20 09:35:43;;;;;;;13.63;5.40;;;15.40;94.00;;;;;;5032409;28;20218;-71
2021/05/20 09:38:12;;;;;;;13.17;4.40;;;15.40;94.00;;;;;;5030022;28;20328;-69
2021/05/20 09:40:45;;;;;;;10.97;4.87;;;15.30;94.20;;;;;;5032887;28;20187;-70
2021/05/20 09:43:21;;;;;;;10.80;4.17;;;15.30;94.40;;;;;;5031886;28;20195;-70
2021/05/20 09:45:51;;;;;;;11.93;5.40;;;15.30;94.60;;;;;;5034254;28;20532;-73
2021/05/20 09:48:21;;;;;;;12.63;5.30;;;15.20;95.00;;;;;;5033548;28;20184;-73
2021/05/20 09:50:54;;;;;;;13.37;5.47;;;15.20;95.50;;;;;;5034438;28;20184;-74
2021/05/20 09:53:24;;;;;;;12.33;5.03;;;15.10;95.90;;;;;;5034215;28;20563;-73
2021/05/20 09:55:57;;;;;;;12.63;5.40;;;15.10;96.60;;;;;;5024943;28;20191;-72
2021/05/20 09:58:29;;;;;;;11.93;5.67;;;15.10;96.90;;;;;;5030964;28;20183;-70
2021/05/20 10:00:58;;;;;;;10.93;5.07;;;15.00;97.30;;;;;;5032538;28;20180;-69
2021/05/20 10:03:27;;;;;;;11.60;5.23;;;15.00;97.60;;;;;;5032153;28;20219;-70
2021/05/20 10:05:59;;;;;;;15.83;5.53;;;15.00;97.70;;;;;;5031571;28;20192;-70
2021/05/20 10:08:32;;;;;;;20.67;6.03;;;14.90;98.30;;;;;;5032411;28;20648;-70
2021/05/20 10:11:05;;;;;;;16.07;5.67;;;14.90;98.70;;;;;;5032788;28;20589;-71
2021/05/20 10:13:32;;;;;;;10.97;5.00;;;14.90;98.80;;;;;;5033181;28;20180;-71
2021/05/20 10:16:01;;;;;;;17.47;5.70;;;14.80;98.80;;;;;;5033054;28;20179;-73
2021/05/20 10:18:29;;;;;;;16.33;5.43;;;14.90;99.00;;;;;;5032979;28;20196;-70
2021/05/20 10:21:03;;;;;;;16.57;5.57;;;14.80;99.40;;;;;;5032568;28;20194;-73
2021/05/20 10:23:32;;;;;;;15.40;6.97;;;14.80;99.90;;;;;;5029885;28;20215;-73
2021/05/20 10:26:00;;;;;;;19.07;7.70;;;14.70;99.90;;;;;;5033062;28;20181;-71
2021/05/20 10:28:27;;;;;;;17.07;7.40;;;14.70;99.90;;;;;;5031720;28;20580;-72
2021/05/20 10:30:59;;;;;;;26.70;8.73;;;14.70;99.90;;;;;;5031919;28;20256;-73
2021/05/20 10:33:29;;;;;;;26.70;9.97;;;14.70;99.90;;;;;;5033398;28;20176;-72
2021/05/20 10:35:58;;;;;;;27.93;13.17;;;14.70;99.90;;;;;;5036609;28;20176;-72
2021/05/20 10:38:29;;;;;;;32.37;14.57;;;14.70;99.90;;;;;;5035349;28;20579;-73
2021/05/20 10:41:13;;;;;;;23.27;11.43;;;14.60;99.90;;;;;;5036782;28;20184;-73
2021/05/20 10:43:43;;;;;;;25.47;10.67;;;14.60;99.90;;;;;;5036625;28;20212;-72
2021/05/20 10:46:13;;;;;;;17.83;8.23;;;14.60;99.90;;;;;;5036534;28;20548;-72
2021/05/20 10:49:02;;;;;;;16.53;7.80;;;14.50;99.90;;;;;;5036691;28;20212;-72
2021/05/20 10:51:37;;;;;;;13.83;7.90;;;14.50;99.90;;;;;;5036440;28;20545;-72
2021/05/20 10:54:05;;;;;;;16.67;7.77;;;14.60;99.90;;;;;;5036159;28;20247;-71
2021/05/20 10:56:32;;;;;;;22.77;8.73;;;14.60;99.90;;;;;;5036205;28;20171;-72
2021/05/20 10:59:01;;;;;;;16.50;8.73;;;14.60;99.90;;;;;;5036262;28;20184;-73
2021/05/20 11:01:31;;;;;;;18.63;8.20;;;14.60;99.90;;;;;;5035949;28;20205;-70
2021/05/20 11:03:59;;;;;;;18.80;8.40;;;14.50;99.90;;;;;;5036318;28;20192;-70
2021/05/20 11:06:38;;;;;;;14.60;7.10;;;14.50;99.90;;;;;;5035428;28;20534;-73
2021/05/20 11:09:10;;;;;;;16.80;7.23;;;14.50;99.90;;;;;;5036292;28;20613;-73
2021/05/20 11:11:41;;;;;;;16.90;6.40;;;14.50;99.90;;;;;;5035827;28;20174;-72
2021/05/20 11:14:14;;;;;;;13.10;6.33;;;14.40;99.90;;;;;;5034920;28;20660;-71
2021/05/20 11:16:49;;;;;;;12.03;6.10;;;14.40;99.90;;;;;;5035245;28;20181;-72
2021/05/20 11:19:26;;;;;;;13.43;5.77;;;14.40;99.90;;;;;;5035199;28;20581;-72
2021/05/20 11:21:59;;;;;;;11.03;5.40;;;14.40;99.90;;;;;;5026228;28;20204;-71
2021/05/20 11:24:35;;;;;;;9.77;5.83;;;14.40;99.90;;;;;;5035445;28;20176;-71
2021/05/20 11:27:15;;;;;;;12.63;5.67;;;14.40;99.90;;;;;;5035071;28;20198;-73
2021/05/20 11:29:44;;;;;;;14.27;6.03;;;14.50;99.90;;;;;;5035382;28;20267;-71
2021/05/20 11:32:28;;;;;;;10.80;5.10;;;14.50;99.90;;;;;;5027284;28;20184;-72
2021/05/20 11:35:56;;;;;;;13.60;5.97;;;14.50;99.90;;;;;;5034597;28;20177;-71
2021/05/20 11:38:22;;;;;;;17.63;7.27;;;14.50;99.90;;;;;;5034559;28;20266;-71
2021/05/20 11:40:50;;;;;;;16.13;6.97;;;14.40;99.90;;;;;;5035307;28;20189;-73
2021/05/20 11:43:30;;;;;;;14.67;6.53;;;14.50;99.90;;;;;;5034711;28;20235;-72
2021/05/20 11:45:58;;;;;;;16.63;6.60;;;14.30;99.90;;;;;;5032338;28;20252;-72
2021/05/20 11:48:25;;;;;;;17.23;6.57;;;14.30;99.90;;;;;;5034842;28;20634;-72
2021/05/20 11:50:54;;;;;;;18.90;6.20;;;14.20;99.90;;;;;;5034738;28;20188;-72
2021/05/20 11:53:21;;;;;;;19.13;5.60;;;14.10;99.90;;;;;;5035296;28;20176;-72
2021/05/20 11:55:48;;;;;;;14.30;6.50;;;14.00;99.90;;;;;;5035077;28;20276;-67
2021/05/20 11:58:16;;;;;;;12.87;7.30;;;14.00;99.90;;;;;;5033680;28;20619;-69
2021/05/20 12:00:44;;;;;;;12.50;6.67;;;13.90;99.90;;;;;;5033650;28;20192;-73
2021/05/20 12:03:11;;;;;;;20.43;6.30;;;13.80;99.90;;;;;;5035212;28;20272;-73
2021/05/20 12:05:39;;;;;;;13.93;6.03;;;13.80;99.90;;;;;;5034486;28;20177;-71
2021/05/20 12:08:21;;;;;;;12.07;6.30;;;13.70;99.90;;;;;;5035211;28;20231;-72
2021/05/20 12:10:54;;;;;;;13.63;6.23;;;13.70;99.90;;;;;;5034915;28;20192;-73
2021/05/20 12:13:21;;;;;;;11.50;5.87;;;13.60;99.90;;;;;;5034931;28;20181;-70
2021/05/20 12:15:49;;;;;;;11.97;5.93;;;13.60;99.90;;;;;;5034132;28;20185;-70
2021/05/20 12:18:18;;;;;;;13.43;6.57;;;13.50;99.90;;;;;;5033782;28;20189;-72
2021/05/20 12:20:47;;;;;;;14.27;6.30;;;13.50;99.90;;;;;;5034848;28;20168;-73
2021/05/20 12:23:14;;;;;;;11.93;5.80;;;13.50;99.90;;;;;;5031762;28;20200;-70
2021/05/20 12:25:42;;;;;;;10.80;5.50;;;13.50;99.90;;;;;;5034305;28;20169;-73
2021/05/20 12:28:12;;;;;;;9.83;5.90;;;13.40;99.90;;;;;;5033779;28;20763;-71
2021/05/20 12:30:40;;;;;;;16.10;6.40;;;13.40;99.90;;;;;;5033257;28;20690;-72
2021/05/20 12:33:09;;;;;;;23.53;7.13;;;13.40;99.90;;;;;;5033602;28;20188;-73
2021/05/20 12:35:43;;;;;;;12.97;5.53;;;13.40;99.90;;;;;;5032364;28;20184;-68
2021/05/20 12:38:18;;;;;;;14.03;5.57;;;13.30;99.90;;;;;;5033022;28;20686;-72
2021/05/20 12:40:55;;;;;;;12.67;5.00;;;13.30;99.90;;;;;;5034124;28;20234;-71
2021/05/20 12:43:32;;;;;;;14.27;5.93;;;13.30;99.90;;;;;;5034134;28;20184;-70
2021/05/20 12:46:02;;;;;;;16.27;6.17;;;13.20;99.90;;;;;;5034081;28;20185;-69
2021/05/20 12:48:36;;;;;;;12.47;4.80;;;13.20;99.90;;;;;;5033812;28;20184;-69
2021/05/20 12:51:19;;;;;;;14.17;5.17;;;13.20;99.90;;;;;;5034207;28;20260;-72
2021/05/20 12:54:02;;;;;;;15.37;5.17;;;13.10;99.90;;;;;;5024387;28;20208;-72
2021/05/20 12:56:42;;;;;;;7.60;4.67;;;13.10;99.90;;;;;;5029997;28;20255;-69
2021/05/20 12:59:11;;;;;;;11.97;5.30;;;13.10;99.90;;;;;;5032281;28;20219;-70